createdAt,value
2023-04-09T00:00:28.719Z,110.00
2023-04-09T00:05:30.669Z,103.90
2023-04-09T00:10:34.961Z,102.17
2023-04-09T00:15:37.347Z,102.27
2023-04-09T00:20:39.390Z,107.37
2023-04-09T00:25:41.251Z,106.87
2023-04-09T00:30:42.925Z,107.20
2023-04-09T00:35:46.915Z,108.27
2023-04-09T00:40:50.418Z,103.37
2023-04-09T00:45:56.909Z,104.87
2023-04-09T00:50:58.671Z,103.67
2023-04-09T00:56:00.500Z,108.10
2023-04-09T01:01:04.670Z,113.77
2023-04-09T01:06:24.842Z,110.97
2023-04-09T01:11:39.280Z,106.33
2023-04-09T01:16:50.315Z,113.60
2023-04-09T01:21:58.746Z,117.73
2023-04-09T01:27:07.712Z,116.60
2023-04-09T01:32:33.578Z,110.67
2023-04-09T01:37:38.523Z,115.20
2023-04-09T01:42:40.797Z,110.23
2023-04-09T01:47:45.818Z,111.50
2023-04-09T01:52:47.642Z,113.47
2023-04-09T01:57:51.698Z,121.63
2023-04-09T02:03:11.307Z,121.00
2023-04-09T02:08:42.156Z,117.43
2023-04-09T02:13:48.398Z,130.63
2023-04-09T02:18:54.795Z,123.23
2023-04-09T02:23:59.542Z,125.10
2023-04-09T02:29:05.720Z,133.03
2023-04-09T02:34:10.397Z,124.33
2023-04-09T02:39:12.202Z,140.77
2023-04-09T02:44:14.166Z,133.50
2023-04-09T02:49:16.133Z,138.53
2023-04-09T02:54:21.094Z,141.97
2023-04-09T02:59:25.065Z,127.73
2023-04-09T03:04:31.667Z,123.23
2023-04-09T03:09:35.723Z,130.90
2023-04-09T03:14:37.429Z,134.67
2023-04-09T03:19:39.281Z,133.30
2023-04-09T03:24:40.993Z,134.73
2023-04-09T03:29:47.340Z,142.17
2023-04-09T03:34:54.528Z,139.33
2023-04-09T03:39:57.471Z,155.67
2023-04-09T03:45:05.243Z,147.17
2023-04-09T03:50:12.762Z,147.17
2023-04-09T03:55:24.678Z,136.93
2023-04-09T04:00:27.496Z,152.47
2023-04-09T04:05:51.266Z,147.30
2023-04-09T04:10:53.191Z,143.47
2023-04-09T04:15:55.829Z,143.03
2023-04-09T04:21:01.156Z,138.00
2023-04-09T04:26:10.870Z,144.60
2023-04-09T04:31:18.325Z,145.97
2023-04-09T04:36:23.242Z,147.77
2023-04-09T04:41:29.714Z,135.37
2023-04-09T04:46:51.650Z,139.23
2023-04-09T04:51:55.686Z,138.57
2023-04-09T04:56:57.543Z,135.60
2023-04-09T05:02:11.752Z,137.13
2023-04-09T05:07:24.442Z,138.37
2023-04-09T05:12:31.890Z,144.47
2023-04-09T05:17:36.685Z,139.57
2023-04-09T05:22:39.382Z,139.02
2023-04-09T05:27:41.848Z,133.00
2023-04-09T05:32:44.594Z,129.40
2023-04-09T05:37:50.949Z,132.50
2023-04-09T05:42:53.344Z,131.20
2023-04-09T05:48:11.018Z,128.27
2023-04-09T05:53:14.292Z,126.60
2023-04-09T05:58:18.804Z,131.13
2023-04-09T06:03:22.497Z,125.67
2023-04-09T06:08:32.076Z,122.23
2023-04-09T06:13:33.741Z,128.40
2023-04-09T06:18:42.453Z,108.60
2023-04-09T06:23:46.481Z,111.07
2023-04-09T06:28:50.446Z,92.07
2023-04-09T06:33:52.339Z,87.10
2023-04-09T06:38:59.408Z,88.33
2023-04-09T06:44:01.614Z,88.73
2023-04-09T06:49:06.005Z,86.67
2023-04-09T06:54:07.698Z,71.77
2023-04-09T06:59:09.420Z,65.97
2023-04-09T07:04:11.707Z,66.90
2023-04-09T07:09:13.473Z,67.60
2023-04-09T07:14:15.620Z,67.50
2023-04-09T07:19:20.385Z,70.43
2023-04-09T07:24:22.707Z,69.93
2023-04-09T07:29:24.545Z,66.23
2023-04-09T07:34:26.634Z,70.10
2023-04-09T07:39:31.288Z,63.57
2023-04-09T07:44:36.530Z,62.30
2023-04-09T07:49:38.503Z,57.53
2023-04-09T07:54:40.519Z,48.03
2023-04-09T07:59:42.283Z,46.53
2023-04-09T08:04:49.451Z,47.27
2023-04-09T08:09:51.606Z,45.20
2023-04-09T08:14:56.132Z,44.70
2023-04-09T08:19:57.836Z,39.23
2023-04-09T08:25:01.411Z,32.80
2023-04-09T08:30:07.339Z,36.23
2023-04-09T08:35:13.208Z,29.87
2023-04-09T08:40:15.275Z,30.27
2023-04-09T08:45:19.276Z,30.77
2023-04-09T08:50:21.144Z,33.10
2023-04-09T08:55:22.928Z,35.60
2023-04-09T09:00:24.758Z,36.35
2023-04-09T09:05:36.317Z,47.10
2023-04-09T09:10:43.007Z,40.22
2023-04-09T09:15:49.945Z,38.22
2023-04-09T09:20:51.742Z,46.00
2023-04-09T09:25:59.565Z,49.95
2023-04-09T09:31:10.117Z,44.67
2023-04-09T09:36:16.035Z,42.70
2023-04-09T09:41:23.360Z,43.97
2023-04-09T09:46:26.328Z,44.85
2023-04-09T09:51:31.489Z,42.67
2023-04-09T09:56:39.417Z,41.40
2023-04-09T10:01:44.355Z,47.97
2023-04-09T10:06:50.275Z,49.97
2023-04-09T10:11:56.012Z,43.15
2023-04-09T10:16:57.839Z,42.97
2023-04-09T10:22:05.774Z,43.08
2023-04-09T10:27:12.552Z,38.00
2023-04-09T10:32:23.870Z,38.67
2023-04-09T10:37:27.387Z,37.08
2023-04-09T10:42:38.873Z,33.50
2023-04-09T10:47:42.816Z,31.08
2023-04-09T10:52:45.350Z,28.70
2023-04-09T10:57:49.554Z,29.80
2023-04-09T11:03:04.567Z,30.52
2023-04-09T11:08:14.027Z,28.67
2023-04-09T11:13:17.472Z,28.33
2023-04-09T11:18:25.883Z,39.10
2023-04-09T11:23:28.097Z,26.17
2023-04-09T11:28:29.927Z,26.90
2023-04-09T11:33:36.888Z,28.08
2023-04-09T11:38:41.435Z,29.73
2023-04-09T11:43:43.338Z,30.58
2023-04-09T11:48:45.372Z,27.60
2023-04-09T11:53:52.227Z,28.67
2023-04-09T11:58:54.864Z,26.95
2023-04-09T12:03:56.697Z,28.33
2023-04-09T12:08:59.280Z,33.45
2023-04-09T12:14:02.899Z,29.73
2023-04-09T12:19:08.784Z,24.27
2023-04-09T12:24:10.497Z,31.80
2023-04-09T12:29:21.609Z,26.63
2023-04-09T12:34:27.305Z,40.25
2023-04-09T12:39:33.855Z,24.15
2023-04-09T12:44:37.206Z,22.65
2023-04-09T12:49:40.630Z,21.88
2023-04-09T12:54:44.976Z,22.23
2023-04-09T12:59:46.746Z,22.65
2023-04-09T13:04:49.242Z,22.25
2023-04-09T13:09:51.202Z,24.30
2023-04-09T13:14:59.367Z,21.40
2023-04-09T13:20:03.792Z,20.52
2023-04-09T13:25:08.156Z,19.73
2023-04-09T13:30:10.035Z,21.20
2023-04-09T13:35:11.739Z,19.52
2023-04-09T13:40:13.534Z,22.63
2023-04-09T13:45:18.065Z,21.63
2023-04-09T13:50:22.442Z,26.95
2023-04-09T13:55:26.756Z,19.98
2023-04-09T14:00:31.033Z,19.38
2023-04-09T14:05:35.061Z,22.55
2023-04-09T14:10:41.480Z,18.00
2023-04-09T14:15:45.326Z,21.00
2023-04-09T14:20:47.257Z,19.40
2023-04-09T14:25:51.331Z,19.15
2023-04-09T14:30:56.398Z,16.73
2023-04-09T14:35:59.030Z,15.95
2023-04-09T14:41:00.862Z,18.48
2023-04-09T14:46:06.457Z,19.98
2023-04-09T14:51:11.746Z,19.42
2023-04-09T14:56:13.482Z,19.02
2023-04-09T15:01:17.490Z,20.30
2023-04-09T15:06:19.515Z,20.95
2023-04-09T15:11:26.779Z,20.67
2023-04-09T15:16:29.426Z,24.48
2023-04-09T15:21:34.059Z,19.23
2023-04-09T15:26:36.028Z,21.15
2023-04-09T15:31:40.032Z,21.38
2023-04-09T15:36:46.128Z,21.38
2023-04-09T15:41:50.093Z,23.23
2023-04-09T15:46:54.857Z,21.63
2023-04-09T15:51:56.836Z,23.10
2023-04-09T15:57:04.253Z,20.67
2023-04-09T16:02:08.745Z,24.25
2023-04-09T16:07:11.029Z,28.02
2023-04-09T16:12:15.590Z,26.55
2023-04-09T16:17:19.539Z,26.13
2023-04-09T16:22:23.690Z,28.23
2023-04-09T16:27:25.424Z,27.90
2023-04-09T16:32:29.374Z,27.10
2023-04-09T16:37:31.340Z,28.90
2023-04-09T16:42:36.913Z,28.13
2023-04-09T16:47:40.996Z,28.83
2023-04-09T16:52:44.137Z,29.17
2023-04-09T16:57:45.939Z,26.73
2023-04-09T17:02:47.761Z,23.42
2023-04-09T17:07:49.538Z,24.65
2023-04-09T17:12:53.663Z,25.73
2023-04-09T17:17:58.495Z,16.45
2023-04-09T17:23:02.449Z,14.05
2023-04-09T17:28:06.931Z,24.63
2023-04-09T17:33:12.410Z,21.17
2023-04-09T17:38:20.505Z,19.20
2023-04-09T17:43:22.278Z,17.85
2023-04-09T17:48:23.949Z,15.73
2023-04-09T17:53:27.781Z,17.88
2023-04-09T17:58:31.866Z,16.45
2023-04-09T18:03:34.156Z,17.55
2023-04-09T18:08:36.889Z,17.65
2023-04-09T18:13:40.953Z,16.95
2023-04-09T18:18:45.260Z,20.27
2023-04-09T18:23:47.367Z,113.47
2023-04-09T18:28:49.121Z,99.90
2023-04-09T18:33:51.406Z,72.05
2023-04-09T18:39:00.278Z,36.78
2023-04-09T18:44:02.302Z,37.78
2023-04-09T18:49:06.296Z,26.85
2023-04-09T18:54:10.111Z,30.35
2023-04-09T18:59:12.264Z,24.13
2023-04-09T19:04:14.312Z,25.63
2023-04-09T19:09:16.077Z,21.52
2023-04-09T19:14:19.871Z,22.27
2023-04-09T19:19:24.088Z,20.98
2023-04-09T19:24:25.890Z,19.48
2023-04-09T19:29:30.394Z,22.65
2023-04-09T19:34:34.894Z,20.23
2023-04-09T19:39:36.634Z,18.52
2023-04-09T19:44:40.641Z,19.63
2023-04-09T19:49:42.540Z,22.67
2023-04-09T19:54:44.237Z,24.98
2023-04-09T19:59:48.550Z,116.85
2023-04-09T20:04:52.391Z,121.43
2023-04-09T20:09:54.656Z,96.78
2023-04-09T20:14:59.352Z,85.28
2023-04-09T20:20:04.849Z,91.28
2023-04-09T20:25:07.142Z,83.60
2023-04-09T20:30:11.628Z,57.78
2023-04-09T20:35:14.547Z,52.47
2023-04-09T20:40:19.073Z,43.95
2023-04-09T20:45:21.091Z,40.35
2023-04-09T20:50:22.826Z,41.10
2023-04-09T20:55:25.467Z,39.25
2023-04-09T21:00:27.692Z,42.22
2023-04-09T21:05:29.397Z,41.58
2023-04-09T21:10:33.457Z,40.28
2023-04-09T21:15:38.213Z,39.83
2023-04-09T21:20:48.789Z,43.13
2023-04-09T21:25:50.464Z,40.45
2023-04-09T21:30:57.702Z,39.85
2023-04-09T21:35:59.608Z,37.88
2023-04-09T21:41:01.876Z,43.20
2023-04-09T21:46:05.986Z,41.15
2023-04-09T21:51:13.545Z,43.35
2023-04-09T21:56:17.859Z,55.27
2023-04-09T22:01:29.046Z,47.47
2023-04-09T22:06:35.708Z,45.03
2023-04-09T22:11:41.159Z,55.50
2023-04-09T22:16:48.233Z,47.87
2023-04-09T22:21:50.650Z,50.47
2023-04-09T22:27:01.626Z,48.17
2023-04-09T22:32:05.712Z,49.37
2023-04-09T22:37:12.247Z,51.57
2023-04-09T22:42:17.054Z,51.13
2023-04-09T22:47:18.769Z,58.10
2023-04-09T22:52:20.634Z,49.03
2023-04-09T22:57:22.305Z,52.53
2023-04-09T23:02:24.195Z,52.07
2023-04-09T23:07:26.186Z,51.73
2023-04-09T23:12:27.871Z,50.63
2023-04-09T23:17:32.016Z,52.23
2023-04-09T23:22:39.007Z,57.23
2023-04-09T23:27:43.646Z,54.17
2023-04-09T23:32:48.398Z,53.70
2023-04-09T23:37:53.101Z,54.63
2023-04-09T23:42:57.019Z,53.83
2023-04-09T23:48:00.797Z,53.07
2023-04-09T23:53:04.708Z,53.57
2023-04-09T23:58:09.763Z,51.00
